West Columbia, WV

9:44 PM EST on February 27, 2017 (GMT -0500)
Point Pleasant

Weather History for K3I2 - February, 2012

Change the Weather History Date:

Sunday, February 12, 2012

  Actual Average (KHTS) Record (KHTS)
Temperature  
Mean Temperature 24 °F -  
Max Temperature 32 °F 45 °F 73 °F (1932)
Min Temperature 15 °F 28 °F -10 °F (1899)
Degree Days  
Heating Degree Days 42    
Moisture  
Dew Point 12 °F    
Average Humidity 62    
Maximum Humidity 86    
Minimum Humidity 48    
Precipitation  
Precipitation 0.00 in - - ()
Sea Level Pressure  
Sea Level Pressure 30.29 in    
Wind  
Wind Speed 6 mph (West)    
Max Wind Speed 12 mph    
Max Gust Speed 21 mph    
Visibility 10 miles    
Events Snow    
Averages and records for this station are not official NWS values.
T = Trace of Precipitation, MM = Missing Value Source: NWS Daily Summary

Daily Weather History Graph

Daily Weather History Graph

Search for Another Location

Airport or City:

Trip Planner

Search our weather history database for the weather conditions in past years. The results will help you decide how hot, cold, wet, or windy it might be!

Date:

Astronomy

Feb. 12, 2012 Rise Set
Actual Time 7:23 AM EST 6:01 PM EST
Civil Twilight 6:56 AM EST 6:29 PM EST
Nautical Twilight 6:25 AM EST 7:00 PM EST
Astronomical Twilight 5:54 AM EST 7:31 PM EST
Moon 11:54 PM EST (2/12) 9:45 AM EST (2/12)
Length of Visible Light 11h 33m
Length of Day
10h 38m
Waning Gibbous, 72% of the Moon is Illuminated
Feb 12
Waning Gibbous
Feb 14
Last Quarter
Feb 21
New
Feb 29
First Quarter
Mar 8
Full

Hourly Weather History & Observations

Time (EST) Temp. Windchill Dew Point Humidity Pressure Visibility Wind Dir Wind Speed Gust Speed Precip Events Conditions
12:15 AM 21.2 °F 16.4 °F 15.8 °F 80% 30.28 in 5.0 mi West 3.5 mph - N/A Snow Light Snow
12:35 AM 21.2 °F 11.7 °F 12.2 °F 68% 30.29 in 10.0 mi WNW 8.1 mph - N/A   Mostly Cloudy
12:55 AM 21.2 °F 13.6 °F 12.2 °F 68% 30.29 in 10.0 mi WNW 5.8 mph 20.7 mph N/A   Mostly Cloudy
1:15 AM 19.4 °F 11.5 °F 10.4 °F 68% 30.29 in 10.0 mi WNW 5.8 mph - N/A   Overcast
1:35 AM 19.4 °F 12.8 °F 10.4 °F 68% 30.29 in 10.0 mi West 4.6 mph - N/A   Overcast
1:55 AM 19.4 °F 12.8 °F 10.4 °F 68% 30.29 in 10.0 mi WNW 4.6 mph - N/A   Mostly Cloudy
2:15 AM 19.4 °F 9.5 °F 12.2 °F 74% 30.29 in 7.0 mi WNW 8.1 mph - N/A Snow Light Snow
2:55 AM 19.4 °F 9.5 °F 10.4 °F 68% 30.30 in 10.0 mi WNW 8.1 mph - N/A   Scattered Clouds
3:15 AM 19.4 °F 12.8 °F 8.6 °F 63% 30.30 in 10.0 mi West 4.6 mph - N/A   Mostly Cloudy
3:35 AM 19.4 °F 10.4 °F 8.6 °F 63% 30.30 in 10.0 mi West 6.9 mph - N/A   Overcast
3:55 AM 17.6 °F 10.7 °F 8.6 °F 68% 30.31 in 10.0 mi West 4.6 mph - N/A   Overcast
4:15 AM 17.6 °F 10.7 °F 8.6 °F 68% 30.30 in 10.0 mi West 4.6 mph - N/A   Overcast
4:35 AM 17.6 °F 9.3 °F 6.8 °F 63% 30.31 in 10.0 mi West 5.8 mph - N/A   Overcast
4:55 AM 17.6 °F 10.7 °F 6.8 °F 63% 30.31 in 10.0 mi West 4.6 mph - N/A   Overcast
5:15 AM 15.8 °F 10.2 °F 6.8 °F 68% 30.32 in 10.0 mi WSW 3.5 mph - N/A   Scattered Clouds
5:35 AM 15.8 °F - 6.8 °F 68% 30.32 in 10.0 mi Calm Calm - N/A   Clear
5:55 AM 17.6 °F 12.3 °F 8.6 °F 68% 30.32 in 10.0 mi West 3.5 mph - N/A   Mostly Cloudy
6:15 AM 17.6 °F 6.4 °F 8.6 °F 68% 30.31 in 10.0 mi WSW 9.2 mph - N/A   Overcast
6:35 AM 17.6 °F 7.3 °F 8.6 °F 68% 30.31 in 10.0 mi WSW 8.1 mph - N/A   Overcast
6:55 AM 17.6 °F 7.3 °F 8.6 °F 68% 30.30 in 10.0 mi WSW 8.1 mph - N/A   Overcast
7:15 AM 15.8 °F 7.2 °F 8.6 °F 73% 30.30 in 10.0 mi WSW 5.8 mph - N/A   Scattered Clouds
7:35 AM 15.8 °F 6.1 °F 8.6 °F 73% 30.30 in 10.0 mi WSW 6.9 mph - N/A   Clear
7:55 AM 15.8 °F 5.1 °F 8.6 °F 73% 30.30 in 10.0 mi WSW 8.1 mph - N/A   Scattered Clouds
8:15 AM 17.6 °F 7.3 °F 8.6 °F 68% 30.32 in 10.0 mi WSW 8.1 mph - N/A   Overcast
8:35 AM 17.6 °F 8.2 °F 8.6 °F 68% 30.32 in 10.0 mi WSW 6.9 mph - N/A   Mostly Cloudy
8:55 AM 17.6 °F 7.3 °F 8.6 °F 68% 30.33 in 10.0 mi WSW 8.1 mph - N/A   Scattered Clouds
9:15 AM 19.4 °F 9.5 °F 10.4 °F 68% 30.33 in 10.0 mi WSW 8.1 mph - N/A   Scattered Clouds
9:35 AM 21.2 °F 11.7 °F 10.4 °F 63% 30.33 in 10.0 mi WSW 8.1 mph 17.3 mph N/A   Scattered Clouds
9:55 AM 23.0 °F 15.8 °F 10.4 °F 59% 30.34 in 10.0 mi WSW 5.8 mph 9.2 mph N/A   Overcast
10:15 AM 23.0 °F 17.0 °F 10.4 °F 59% 30.33 in 10.0 mi WSW 4.6 mph - N/A   Mostly Cloudy
10:35 AM 24.8 °F 14.6 °F 10.4 °F 54% 30.33 in 10.0 mi WSW 10.4 mph 17.3 mph N/A   Scattered Clouds
10:55 AM 24.8 °F 14.6 °F 10.4 °F 54% 30.33 in 10.0 mi WSW 10.4 mph 18.4 mph N/A   Clear
11:15 AM 24.8 °F 14.6 °F 10.4 °F 54% 30.33 in 10.0 mi WSW 10.4 mph 18.4 mph N/A   Clear
11:35 AM 26.6 °F 19.1 °F 12.2 °F 55% 30.32 in 10.0 mi West 6.9 mph - N/A   Clear
11:55 AM 28.4 °F 19.1 °F 12.2 °F 51% 30.32 in 10.0 mi WSW 10.4 mph 16.1 mph N/A   Clear
12:15 PM 28.4 °F 21.2 °F 12.2 °F 51% 30.30 in 10.0 mi WSW 6.9 mph 16.1 mph N/A   Clear
12:35 PM 28.4 °F 19.1 °F 12.2 °F 51% 30.29 in 10.0 mi SW 10.4 mph 17.3 mph N/A   Clear
12:55 PM 28.4 °F 19.7 °F 14.0 °F 55% 30.28 in 10.0 mi WSW 9.2 mph 16.1 mph N/A   Clear
1:15 PM 30.2 °F 21.9 °F 14.0 °F 51% 30.27 in 10.0 mi WSW 9.2 mph 16.1 mph N/A   Clear
1:35 PM 30.2 °F 23.4 °F 14.0 °F 51% 30.26 in 10.0 mi WSW 6.9 mph - N/A   Clear
1:55 PM 30.2 °F 20.8 °F 15.8 °F 55% 30.25 in 10.0 mi WSW 11.5 mph - N/A   Clear
2:15 PM 32.0 °F 28.7 °F 15.8 °F 51% 30.24 in 10.0 mi West 3.5 mph - N/A   Clear
2:35 PM 32.0 °F 25.6 °F 17.6 °F 55% 30.24 in 10.0 mi West 6.9 mph - N/A   Clear
2:55 PM 32.0 °F 26.4 °F 15.8 °F 51% 30.24 in 10.0 mi West 5.8 mph 9.2 mph N/A   Clear
3:15 PM 32.0 °F 25.6 °F 14.0 °F 48% 30.24 in 10.0 mi West 6.9 mph - N/A   Clear
3:35 PM 32.0 °F 24.8 °F 15.8 °F 51% 30.24 in 10.0 mi West 8.1 mph - N/A   Clear
3:55 PM 32.0 °F 25.6 °F 17.6 °F 55% 30.24 in 10.0 mi West 6.9 mph 17.3 mph N/A   Clear
4:15 PM 32.0 °F 26.4 °F 17.6 °F 55% 30.24 in 10.0 mi West 5.8 mph 18.4 mph N/A   Clear
4:35 PM 32.0 °F 27.5 °F 14.0 °F 48% 30.24 in 10.0 mi West 4.6 mph - N/A   Clear
4:55 PM 32.0 °F 26.4 °F 15.8 °F 51% 30.24 in 10.0 mi WSW 5.8 mph - N/A   Clear
5:15 PM 32.0 °F 27.5 °F 14.0 °F 48% 30.24 in 10.0 mi West 4.6 mph - N/A   Clear
5:35 PM 32.0 °F 28.7 °F 14.0 °F 48% 30.25 in 10.0 mi West 3.5 mph - N/A   Clear
5:55 PM 32.0 °F - 14.0 °F 48% 30.25 in 10.0 mi Calm Calm - N/A   Clear
6:15 PM 30.2 °F - 14.0 °F 51% 30.26 in 10.0 mi Calm Calm - N/A   Clear
6:35 PM 30.2 °F - 14.0 °F 51% 30.27 in 10.0 mi Calm Calm - N/A   Clear
6:55 PM 30.2 °F - 14.0 °F 51% 30.27 in 10.0 mi Calm Calm - N/A   Clear
7:15 PM 28.4 °F - 15.8 °F 59% 30.27 in 10.0 mi Calm Calm - N/A   Clear
7:35 PM 28.4 °F - 15.8 °F 59% 30.27 in 10.0 mi Calm Calm - N/A   Clear
7:55 PM 28.4 °F - 15.8 °F 59% 30.28 in 10.0 mi Calm Calm - N/A   Clear
8:15 PM 28.4 °F - 15.8 °F 59% 30.28 in 10.0 mi Calm Calm - N/A   Clear
8:35 PM 26.6 °F - 15.8 °F 64% 30.28 in 10.0 mi Calm Calm - N/A   Clear
8:55 PM 23.0 °F - 17.6 °F 80% 30.28 in 10.0 mi Calm Calm - N/A   Clear
9:15 PM 23.0 °F - 17.6 °F 80% 30.28 in 10.0 mi Calm Calm - N/A   Clear
9:35 PM 23.0 °F - 19.4 °F 86% 30.28 in 10.0 mi Calm Calm - N/A   Clear
9:55 PM 23.0 °F - 17.6 °F 80% 30.28 in 10.0 mi Calm Calm - N/A   Clear
10:15 PM 23.0 °F - 17.6 °F 80% 30.28 in 10.0 mi Calm Calm - N/A   Clear
10:35 PM 21.2 °F - 17.6 °F 86% 30.28 in 10.0 mi Calm Calm - N/A   Clear
10:55 PM 21.2 °F - 17.6 °F 86% 30.28 in 10.0 mi Calm Calm - N/A   Clear
11:15 PM 21.2 °F - 19.4 °F 93% 30.28 in 10.0 mi Calm Calm - N/A   Clear
11:35 PM 21.2 °F - 17.6 °F 86% 30.28 in 10.0 mi Calm Calm - N/A   Clear
11:55 PM 23.0 °F - 17.6 °F 80% 30.28 in 10.0 mi Calm Calm - N/A   Clear